Berta — V2BQ6 — position and weather

sailwx.info

Track history (hours):
 
Tides and Currents Weather Stations Pressure Air Temp Water Temp Dewpoint Dewpoint Depression Visibility Wind Speed Wind Dir Waves Ship Positions

Berta

Last reported at 2016-Feb-12 04:04 UTC. Time now 2016-Feb-12 09:49 UTC.
Position N 58°51' E 004°31'.

Length 118 m; draft 6.7 m.

Type: Cargo ship. MMSI: 304586000.

Date/timePositionNaut miles runAvg speedWind from/ knotsBaromVisibWave heightAir tempDewpointWater temp
2016-Feb-12 04:04N 58°51' E 004°31'713.4
2016-Feb-12 03:33N 58°46' E 004°40'1413.7
2016-Feb-12 02:33N 58°36' E 004°57'1414.2
2016-Feb-12 01:33N 58°25' E 005°14'18314.0
2016-Feb-11 12:33N 55°28' E 006°38'1413.7
2016-Feb-11 11:34N 55°15' E 006°43'1313.0
2016-Feb-11 10:33N 55°02' E 006°48'1312.7
2016-Feb-11 09:33N 54°51' E 006°58'1312.5
2016-Feb-11 08:33N 54°40' E 007°08'1212.2
2016-Feb-11 07:33N 54°29' E 007°18'1212.1
2016-Feb-11 06:34N 54°18' E 007°28'1212.2
2016-Feb-11 05:33N 54°10' E 007°43'1212.2
2016-Feb-11 04:34N 54°03' E 008°00'1212.1
2016-Feb-11 03:33N 54°00' E 008°20'1312.8
2016-Feb-11 02:33N 53°55' E 008°40'1010.1
2016-Feb-11 01:33N 53°51' E 008°56'10 9.8
2016-Feb-11 00:33N 53°53' E 009°12'10 9.7
2016-Feb-10 23:33N 53°46' E 009°24'1212.5
2016-Feb-10 22:33N 53°36' E 009°36'1211.9
2016-Feb-10 21:33N 53°32' E 009°55'0 0.3
2016-Feb-10 20:33N 53°32' E 009°55'0 0.0
2016-Feb-10 19:33N 53°32' E 009°55'0 0.0
2016-Feb-10 18:33N 53°32' E 009°55'0 0.0
2016-Feb-10 17:33N 53°32' E 009°55'0 0.0
2016-Feb-10 16:33N 53°32' E 009°55'0 0.0
2016-Feb-10 15:33N 53°32' E 009°55'0 0.0
2016-Feb-10 14:33N 53°32' E 009°55'0 0.0
2016-Feb-10 13:33N 53°32' E 009°55'0 0.0
2016-Feb-10 12:33N 53°32' E 009°55'0 0.0
2016-Feb-10 11:33N 53°32' E 009°55'2 1.9
2016-Feb-10 10:33N 53°31' E 009°56'0 0.0
2016-Feb-10 09:33N 53°31' E 009°56'0 0.0
2016-Feb-10 08:33N 53°31' E 009°56'0 0.0
2016-Feb-10 07:33N 53°31' E 009°56'0 0.0
2016-Feb-10 06:33N 53°31' E 009°56'0 0.0
2016-Feb-10 05:33N 53°31' E 009°56'1 1.1
2016-Feb-10 04:33N 53°32' E 009°56'10 9.6
2016-Feb-10 03:33N 53°34' E 009°41'1313.1
2016-Feb-10 02:33N 53°44' E 009°26'1313.1
2016-Feb-10 01:33N 53°53' E 009°09'1414.2
2016-Feb-10 00:33N 53°51' E 008°45'1413.9
2016-Feb-09 23:33N 53°59' E 008°26'1413.8
2016-Feb-09 22:34N 54°00' E 008°03'1414.5
2016-Feb-09 21:33N 54°08' E 007°42'1514.5
2016-Feb-09 20:34N 54°19' E 007°26'1414.0
2016-Feb-09 19:33N 54°31' E 007°15'1313.3
2016-Feb-09 18:34N 54°43' E 007°03'  
2016-Feb-06 17:33N 63°24' E 009°10'5 0.5
2016-Feb-06 08:08N 63°19' E 009°09'4 6.8
2016-Feb-06 07:30N 63°23' E 009°11'30711.4
2016-Feb-05 04:33N 58°46' E 004°40'1414.3
2016-Feb-05 03:34N 58°36' E 004°58'1413.9
2016-Feb-05 02:34N 58°25' E 005°15'1313.4
2016-Feb-05 01:33N 58°13' E 005°28'18212.7
2016-Feb-04 11:12N 55°14' E 006°26'912.9
2016-Feb-04 10:30N 55°05' E 006°29'3912.0
2016-Feb-04 07:16N 54°29' E 006°51'811.3
2016-Feb-04 06:33N 54°24' E 007°02'1110.7
2016-Feb-04 05:33N 54°19' E 007°18'1111.0
2016-Feb-04 04:34N 54°13' E 007°34'1110.8
2016-Feb-04 03:34N 54°07' E 007°49'1111.2
2016-Feb-04 02:34N 54°01' E 008°06'1211.7
2016-Feb-04 01:33N 53°59' E 008°25'1414.2
2016-Feb-04 00:34N 53°51' E 008°45'1514.8
2016-Feb-03 23:33N 53°53' E 009°10'1313.2
2016-Feb-03 22:33N 53°44' E 009°27'1211.7
2016-Feb-03 21:33N 53°34' E 009°38'10 9.8
2016-Feb-03 20:34N 53°32' E 009°54'0 0.1
2016-Feb-03 19:33N 53°32' E 009°55'0 0.0
2016-Feb-03 18:33N 53°32' E 009°55'0 0.0
2016-Feb-03 17:33N 53°32' E 009°55'0 0.0
2016-Feb-03 16:33N 53°32' E 009°55'0 0.0
2016-Feb-03 15:33N 53°32' E 009°55'0 0.0
2016-Feb-03 14:33N 53°32' E 009°55'0 0.0
2016-Feb-03 13:33N 53°32' E 009°55'0 0.5
2016-Feb-03 12:33N 53°32' E 009°54'3 2.7
2016-Feb-03 11:33N 53°30' E 009°56'0 0.0
2016-Feb-03 10:33N 53°30' E 009°56'0 0.0
2016-Feb-03 09:33N 53°30' E 009°56'0 0.0
2016-Feb-03 08:33N 53°30' E 009°56'0 0.0
2016-Feb-03 07:33N 53°30' E 009°56'0 0.0
2016-Feb-03 06:33N 53°30' E 009°56'2 1.8
2016-Feb-03 05:33N 53°32' E 009°56'10 9.8
2016-Feb-03 04:33N 53°34' E 009°40'5 4.8
2016-Feb-03 03:31N 53°37' E 009°33'0 0.0
2016-Feb-03 02:33N 53°37' E 009°33'0 0.2
2016-Feb-03 01:32N 53°37' E 009°33'10 9.7
2016-Feb-03 00:33N 53°45' E 009°25'10 9.5
2016-Feb-02 23:33N 53°53' E 009°15'8 8.5
2016-Feb-02 22:33N 53°51' E 009°00'9 8.7
2016-Feb-02 21:33N 53°51' E 008°46'8 7.8
2016-Feb-02 20:33N 53°57' E 008°38'8 8.2
2016-Feb-02 19:33N 53°59' E 008°24'10 9.7
2016-Feb-02 18:33N 53°59' E 008°08'9 9.3
2016-Feb-02 17:34N 54°03' E 007°53'9 8.5
2016-Feb-02 16:33N 54°09' E 007°43'1010.2
2016-Feb-02 15:33N 54°18' E 007°35'1010.1
2016-Feb-02 14:33N 54°27' E 007°27'1010.1
2016-Feb-02 13:33N 54°36' E 007°19'1110.0
2016-Feb-02 12:25N 54°46' E 007°09'9 9.8
2016-Feb-02 11:33N 54°53' E 007°02'9 9.2
2016-Feb-02 10:33N 55°01' E 006°53'9 8.8
2016-Feb-02 09:33N 55°09' E 006°46'9 8.7
2016-Feb-02 08:33N 55°17' E 006°39'  
Track history (hours):
 
Tides and Currents Weather Stations Pressure Air Temp Water Temp Dewpoint Dewpoint Depression Visibility Wind Speed Wind Dir Waves Ship Positions

Berta

Last reported at 2016-Feb-12 04:04 UTC. Time now 2016-Feb-12 09:49 UTC.
Position N 58°51' E 004°31'.

Length 118 m; draft 6.7 m.

Type: Cargo ship. MMSI: 304586000.

Date/timePositionNaut miles runAvg speedWind from/ knotsBaromVisibWave heightAir tempDewpointWater temp
2016-Feb-12 04:04N 58°51' E 004°31'713.4
2016-Feb-12 03:33N 58°46' E 004°40'1413.7
2016-Feb-12 02:33N 58°36' E 004°57'1414.2
2016-Feb-12 01:33N 58°25' E 005°14'18314.0
2016-Feb-11 12:33N 55°28' E 006°38'1413.7
2016-Feb-11 11:34N 55°15' E 006°43'1313.0
2016-Feb-11 10:33N 55°02' E 006°48'1312.7
2016-Feb-11 09:33N 54°51' E 006°58'1312.5
2016-Feb-11 08:33N 54°40' E 007°08'1212.2
2016-Feb-11 07:33N 54°29' E 007°18'1212.1
2016-Feb-11 06:34N 54°18' E 007°28'1212.2
2016-Feb-11 05:33N 54°10' E 007°43'1212.2
2016-Feb-11 04:34N 54°03' E 008°00'1212.1
2016-Feb-11 03:33N 54°00' E 008°20'1312.8
2016-Feb-11 02:33N 53°55' E 008°40'1010.1
2016-Feb-11 01:33N 53°51' E 008°56'10 9.8
2016-Feb-11 00:33N 53°53' E 009°12'10 9.7
2016-Feb-10 23:33N 53°46' E 009°24'1212.5
2016-Feb-10 22:33N 53°36' E 009°36'1211.9
2016-Feb-10 21:33N 53°32' E 009°55'0 0.3
2016-Feb-10 20:33N 53°32' E 009°55'0 0.0
2016-Feb-10 19:33N 53°32' E 009°55'0 0.0
2016-Feb-10 18:33N 53°32' E 009°55'0 0.0
2016-Feb-10 17:33N 53°32' E 009°55'0 0.0
2016-Feb-10 16:33N 53°32' E 009°55'0 0.0
2016-Feb-10 15:33N 53°32' E 009°55'0 0.0
2016-Feb-10 14:33N 53°32' E 009°55'0 0.0
2016-Feb-10 13:33N 53°32' E 009°55'0 0.0
2016-Feb-10 12:33N 53°32' E 009°55'0 0.0
2016-Feb-10 11:33N 53°32' E 009°55'2 1.9
2016-Feb-10 10:33N 53°31' E 009°56'0 0.0
2016-Feb-10 09:33N 53°31' E 009°56'0 0.0
2016-Feb-10 08:33N 53°31' E 009°56'0 0.0
2016-Feb-10 07:33N 53°31' E 009°56'0 0.0
2016-Feb-10 06:33N 53°31' E 009°56'0 0.0
2016-Feb-10 05:33N 53°31' E 009°56'1 1.1
2016-Feb-10 04:33N 53°32' E 009°56'10 9.6
2016-Feb-10 03:33N 53°34' E 009°41'1313.1
2016-Feb-10 02:33N 53°44' E 009°26'1313.1
2016-Feb-10 01:33N 53°53' E 009°09'1414.2
2016-Feb-10 00:33N 53°51' E 008°45'1413.9
2016-Feb-09 23:33N 53°59' E 008°26'1413.8
2016-Feb-09 22:34N 54°00' E 008°03'1414.5
2016-Feb-09 21:33N 54°08' E 007°42'1514.5
2016-Feb-09 20:34N 54°19' E 007°26'1414.0
2016-Feb-09 19:33N 54°31' E 007°15'1313.3
2016-Feb-09 18:34N 54°43' E 007°03'  
2016-Feb-06 17:33N 63°24' E 009°10'5 0.5
2016-Feb-06 08:08N 63°19' E 009°09'4 6.8
2016-Feb-06 07:30N 63°23' E 009°11'30711.4
2016-Feb-05 04:33N 58°46' E 004°40'1414.3
2016-Feb-05 03:34N 58°36' E 004°58'1413.9
2016-Feb-05 02:34N 58°25' E 005°15'1313.4
2016-Feb-05 01:33N 58°13' E 005°28'18212.7
2016-Feb-04 11:12N 55°14' E 006°26'912.9
2016-Feb-04 10:30N 55°05' E 006°29'3912.0
2016-Feb-04 07:16N 54°29' E 006°51'811.3
2016-Feb-04 06:33N 54°24' E 007°02'1110.7
2016-Feb-04 05:33N 54°19' E 007°18'1111.0
2016-Feb-04 04:34N 54°13' E 007°34'1110.8
2016-Feb-04 03:34N 54°07' E 007°49'1111.2
2016-Feb-04 02:34N 54°01' E 008°06'1211.7
2016-Feb-04 01:33N 53°59' E 008°25'1414.2
2016-Feb-04 00:34N 53°51' E 008°45'1514.8
2016-Feb-03 23:33N 53°53' E 009°10'1313.2
2016-Feb-03 22:33N 53°44' E 009°27'1211.7
2016-Feb-03 21:33N 53°34' E 009°38'10 9.8
2016-Feb-03 20:34N 53°32' E 009°54'0 0.1
2016-Feb-03 19:33N 53°32' E 009°55'0 0.0
2016-Feb-03 18:33N 53°32' E 009°55'0 0.0
2016-Feb-03 17:33N 53°32' E 009°55'0 0.0
2016-Feb-03 16:33N 53°32' E 009°55'0 0.0
2016-Feb-03 15:33N 53°32' E 009°55'0 0.0
2016-Feb-03 14:33N 53°32' E 009°55'0 0.0
2016-Feb-03 13:33N 53°32' E 009°55'0 0.5
2016-Feb-03 12:33N 53°32' E 009°54'3 2.7
2016-Feb-03 11:33N 53°30' E 009°56'0 0.0
2016-Feb-03 10:33N 53°30' E 009°56'0 0.0
2016-Feb-03 09:33N 53°30' E 009°56'0 0.0
2016-Feb-03 08:33N 53°30' E 009°56'0 0.0
2016-Feb-03 07:33N 53°30' E 009°56'0 0.0
2016-Feb-03 06:33N 53°30' E 009°56'2 1.8
2016-Feb-03 05:33N 53°32' E 009°56'10 9.8
2016-Feb-03 04:33N 53°34' E 009°40'5 4.8
2016-Feb-03 03:31N 53°37' E 009°33'0 0.0
2016-Feb-03 02:33N 53°37' E 009°33'0 0.2
2016-Feb-03 01:32N 53°37' E 009°33'10 9.7
2016-Feb-03 00:33N 53°45' E 009°25'10 9.5
2016-Feb-02 23:33N 53°53' E 009°15'8 8.5
2016-Feb-02 22:33N 53°51' E 009°00'9 8.7
2016-Feb-02 21:33N 53°51' E 008°46'8 7.8
2016-Feb-02 20:33N 53°57' E 008°38'8 8.2
2016-Feb-02 19:33N 53°59' E 008°24'10 9.7
2016-Feb-02 18:33N 53°59' E 008°08'9 9.3
2016-Feb-02 17:34N 54°03' E 007°53'9 8.5
2016-Feb-02 16:33N 54°09' E 007°43'1010.2
2016-Feb-02 15:33N 54°18' E 007°35'1010.1
2016-Feb-02 14:33N 54°27' E 007°27'1010.1
2016-Feb-02 13:33N 54°36' E 007°19'1110.0
2016-Feb-02 12:25N 54°46' E 007°09'9 9.8
2016-Feb-02 11:33N 54°53' E 007°02'9 9.2
2016-Feb-02 10:33N 55°01' E 006°53'9 8.8
2016-Feb-02 09:33N 55°09' E 006°46'9 8.7
2016-Feb-02 08:33N 55°17' E 006°39'  

Dump ship's entire track history